createdAt,value
2023-05-08T00:00:45.144Z,44.37
2023-05-08T00:03:47.536Z,44.38
2023-05-08T00:06:51.496Z,44.25
2023-05-08T00:09:54.154Z,44.55
2023-05-08T00:12:56.899Z,44.19
2023-05-08T00:15:59.122Z,44.32
2023-05-08T00:19:01.252Z,44.07
2023-05-08T00:22:03.476Z,44.19
2023-05-08T00:25:06.360Z,43.96
2023-05-08T00:28:11.636Z,44.37
2023-05-08T00:31:14.603Z,44.13
2023-05-08T00:34:16.849Z,44.46
2023-05-08T00:37:19.196Z,44.10
2023-05-08T00:40:21.475Z,44.50
2023-05-08T00:43:26.547Z,44.54
2023-05-08T00:46:28.886Z,44.49
2023-05-08T00:49:31.383Z,44.73
2023-05-08T00:52:34.017Z,44.15
2023-05-08T00:55:36.271Z,44.20
2023-05-08T00:58:38.665Z,44.44
2023-05-08T01:01:41.156Z,44.50
2023-05-08T01:04:46.800Z,44.44
2023-05-08T01:07:49.136Z,44.22
2023-05-08T01:11:17.338Z,44.54
2023-05-08T01:14:37.548Z,44.76
2023-05-08T01:18:27.810Z,44.80
2023-05-08T01:21:29.972Z,44.93
2023-05-08T01:24:54.847Z,44.77
2023-05-08T01:28:02.796Z,45.03
2023-05-08T01:31:35.826Z,44.78
2023-05-08T01:35:01.070Z,44.90
2023-05-08T01:38:09.864Z,44.60
2023-05-08T01:41:27.339Z,44.83
2023-05-08T01:44:35.304Z,44.81
2023-05-08T01:47:38.537Z,44.70
2023-05-08T01:50:45.635Z,44.82
2023-05-08T01:53:56.523Z,44.79
2023-05-08T01:56:59.611Z,45.04
2023-05-08T02:00:03.860Z,44.61
2023-05-08T02:03:14.838Z,44.62
2023-05-08T02:06:20.438Z,44.99
2023-05-08T02:09:24.183Z,44.88
2023-05-08T02:12:26.621Z,44.81
2023-05-08T02:15:29.528Z,44.62
2023-05-08T02:18:32.098Z,45.04
2023-05-08T02:21:35.714Z,44.88
2023-05-08T02:24:38.432Z,44.97
2023-05-08T02:27:45.786Z,45.10
2023-05-08T02:30:49.210Z,44.85
2023-05-08T02:33:52.721Z,45.24
2023-05-08T02:36:55.003Z,45.46
2023-05-08T02:39:58.581Z,45.18
2023-05-08T02:43:00.938Z,45.35
2023-05-08T02:46:09.226Z,45.03
2023-05-08T02:49:54.083Z,45.14
2023-05-08T02:53:05.330Z,45.55
2023-05-08T02:56:16.754Z,45.25
2023-05-08T02:59:46.159Z,45.36
2023-05-08T03:02:59.868Z,45.28
2023-05-08T03:06:04.004Z,45.37
2023-05-08T03:09:07.002Z,45.54
2023-05-08T03:12:15.379Z,45.39
2023-05-08T03:15:23.965Z,45.34
2023-05-08T03:18:34.223Z,45.66
2023-05-08T03:21:37.535Z,46.00
2023-05-08T03:24:40.490Z,45.88
2023-05-08T03:27:44.241Z,46.04
2023-05-08T03:30:47.697Z,45.97
2023-05-08T03:33:54.365Z,46.05
2023-05-08T03:36:56.979Z,46.49
2023-05-08T03:40:01.286Z,46.21
2023-05-08T03:43:06.432Z,45.99
2023-05-08T03:46:09.894Z,46.02
2023-05-08T03:49:12.673Z,45.50
2023-05-08T03:52:16.368Z,45.83
2023-05-08T03:55:18.589Z,45.80
2023-05-08T03:58:32.008Z,45.21
2023-05-08T04:01:46.528Z,45.28
2023-05-08T04:04:55.886Z,44.79
2023-05-08T04:08:09.949Z,45.16
2023-05-08T04:11:18.430Z,44.32
2023-05-08T04:14:25.074Z,44.23
2023-05-08T04:17:43.827Z,43.94
2023-05-08T04:20:48.317Z,43.78
2023-05-08T04:23:56.421Z,43.71
2023-05-08T04:26:59.441Z,44.08
2023-05-08T04:30:01.921Z,43.73
2023-05-08T04:33:06.264Z,43.86
2023-05-08T04:36:12.933Z,43.42
2023-05-08T04:39:16.323Z,43.37
2023-05-08T04:42:18.933Z,43.20
2023-05-08T04:45:21.314Z,43.09
2023-05-08T04:48:24.871Z,42.75
2023-05-08T04:51:27.236Z,42.01
2023-05-08T04:54:29.884Z,42.42
2023-05-08T04:57:32.318Z,41.58
2023-05-08T05:00:34.955Z,41.99
2023-05-08T05:03:37.378Z,41.59
2023-05-08T05:06:40.872Z,41.18
2023-05-08T05:09:43.106Z,41.90
2023-05-08T05:12:45.421Z,41.88
2023-05-08T05:15:47.988Z,41.08
2023-05-08T05:18:50.949Z,40.96
2023-05-08T05:21:53.126Z,40.97
2023-05-08T05:24:55.462Z,40.41
2023-05-08T05:27:57.819Z,40.98
2023-05-08T05:31:00.472Z,40.81
2023-05-08T05:34:02.997Z,40.31
2023-05-08T05:37:05.559Z,40.32
2023-05-08T05:40:08.777Z,40.00
2023-05-08T05:43:12.864Z,40.00
2023-05-08T05:46:15.267Z,40.15
2023-05-08T05:49:20.568Z,39.80
2023-05-08T05:52:22.832Z,40.01
2023-05-08T05:55:25.073Z,40.08
2023-05-08T05:58:28.593Z,40.05
2023-05-08T06:01:31.348Z,40.16
2023-05-08T06:04:33.697Z,39.97
2023-05-08T06:07:36.155Z,39.91
2023-05-08T06:10:39.387Z,39.90
2023-05-08T06:13:41.693Z,40.16
2023-05-08T06:16:45.055Z,40.02
2023-05-08T06:19:54.181Z,39.45
2023-05-08T06:22:56.368Z,39.27
2023-05-08T06:25:58.691Z,39.25
2023-05-08T06:29:01.333Z,39.74
2023-05-08T06:32:03.645Z,39.02
2023-05-08T06:35:06.393Z,38.10
2023-05-08T06:38:08.526Z,38.91
2023-05-08T06:41:10.660Z,38.69
2023-05-08T06:44:12.824Z,37.99
2023-05-08T06:47:18.633Z,37.74
2023-05-08T06:50:20.931Z,37.20
2023-05-08T06:53:23.411Z,37.29
2023-05-08T06:56:26.552Z,36.84
2023-05-08T06:59:28.775Z,37.34
2023-05-08T07:02:31.014Z,36.46
2023-05-08T07:05:33.148Z,36.15
2023-05-08T07:08:35.390Z,36.54
2023-05-08T07:11:37.615Z,36.25
2023-05-08T07:14:39.798Z,36.52
2023-05-08T07:17:42.488Z,36.60
2023-05-08T07:20:44.692Z,37.09
2023-05-08T07:23:47.976Z,37.62
2023-05-08T07:26:50.168Z,37.10
2023-05-08T07:29:52.385Z,37.26
2023-05-08T07:32:54.634Z,37.88
2023-05-08T07:35:56.785Z,37.17
2023-05-08T07:38:59.001Z,37.58
2023-05-08T07:42:01.598Z,37.79
2023-05-08T07:45:04.106Z,39.00
2023-05-08T07:48:07.567Z,37.09
2023-05-08T07:51:11.258Z,37.03
2023-05-08T07:54:13.477Z,37.75
2023-05-08T07:57:16.917Z,38.03
2023-05-08T08:00:19.181Z,38.15
2023-05-08T08:03:21.409Z,37.00
2023-05-08T08:06:23.673Z,38.14
2023-05-08T08:09:25.876Z,36.82
2023-05-08T08:12:28.795Z,38.11
2023-05-08T08:15:31.271Z,37.64
2023-05-08T08:18:36.708Z,37.88
2023-05-08T08:21:43.618Z,37.69
2023-05-08T08:24:45.811Z,38.09
2023-05-08T08:27:47.910Z,36.79
2023-05-08T08:30:50.959Z,36.80
2023-05-08T08:33:53.892Z,36.37
2023-05-08T08:36:56.078Z,36.83
2023-05-08T08:39:58.238Z,35.75
2023-05-08T08:43:00.533Z,35.19
2023-05-08T08:46:13.321Z,34.96
2023-05-08T08:49:18.671Z,34.85
2023-05-08T08:52:41.399Z,35.66
2023-05-08T08:55:47.183Z,35.71
2023-05-08T08:58:56.795Z,35.09
2023-05-08T09:02:01.974Z,34.38
2023-05-08T09:05:04.586Z,34.21
2023-05-08T09:08:07.294Z,34.92
2023-05-08T09:11:09.495Z,34.17
2023-05-08T09:14:11.652Z,33.77
2023-05-08T09:17:14.431Z,32.87
2023-05-08T09:20:16.644Z,34.48
2023-05-08T09:23:19.771Z,32.73
2023-05-08T09:26:33.784Z,33.08
2023-05-08T09:29:35.967Z,32.86
2023-05-08T09:32:40.264Z,32.10
2023-05-08T09:35:43.110Z,33.42
2023-05-08T09:38:45.521Z,31.81
2023-05-08T09:42:09.036Z,32.97
2023-05-08T09:45:11.764Z,32.68
2023-05-08T09:48:14.198Z,33.99
2023-05-08T09:51:16.809Z,31.53
2023-05-08T09:54:19.152Z,32.71
2023-05-08T09:57:21.508Z,32.20
2023-05-08T10:00:27.846Z,31.87
2023-05-08T10:03:49.529Z,32.36
2023-05-08T10:06:58.786Z,32.04
2023-05-08T10:10:02.902Z,31.41
2023-05-08T10:13:05.304Z,31.52
2023-05-08T10:16:11.239Z,31.23
2023-05-08T10:19:18.137Z,31.67
2023-05-08T10:22:21.847Z,31.59
2023-05-08T10:25:24.876Z,30.84
2023-05-08T10:28:33.564Z,30.56
2023-05-08T10:31:36.635Z,30.65
2023-05-08T10:34:40.872Z,30.65
2023-05-08T10:37:44.107Z,30.16
2023-05-08T10:40:47.074Z,29.88
2023-05-08T10:43:50.529Z,30.23
2023-05-08T10:47:23.449Z,29.91
2023-05-08T10:50:46.050Z,30.07
2023-05-08T10:53:55.942Z,29.35
2023-05-08T10:57:11.861Z,29.17
2023-05-08T11:03:33.229Z,28.67
2023-05-08T11:06:49.266Z,29.20
2023-05-08T11:09:51.840Z,29.18
2023-05-08T11:12:54.448Z,28.58
2023-05-08T11:15:56.904Z,29.29
2023-05-08T11:19:18.796Z,29.51
2023-05-08T11:22:23.667Z,28.89
2023-05-08T11:25:43.344Z,29.90
2023-05-08T11:28:54.654Z,31.03
2023-05-08T11:31:57.278Z,30.40
2023-05-08T11:34:59.574Z,28.91
2023-05-08T11:38:21.679Z,30.62
2023-05-08T11:41:24.435Z,30.00
2023-05-08T11:44:28.321Z,30.82
2023-05-08T11:47:41.386Z,30.79
2023-05-08T11:50:44.253Z,30.52
2023-05-08T11:53:46.978Z,30.56
2023-05-08T11:56:50.790Z,30.33
2023-05-08T11:59:53.041Z,30.49
2023-05-08T12:02:55.287Z,30.66
2023-05-08T12:05:58.752Z,30.14
2023-05-08T12:09:01.765Z,30.40
2023-05-08T12:12:04.140Z,29.38
2023-05-08T12:15:14.678Z,30.08
2023-05-08T12:18:17.430Z,29.96
2023-05-08T12:21:21.253Z,29.96
2023-05-08T12:24:24.317Z,29.74
2023-05-08T12:27:26.901Z,30.02
2023-05-08T12:30:29.200Z,29.80
2023-05-08T12:33:31.587Z,30.12
2023-05-08T12:36:37.541Z,29.65
2023-05-08T12:39:44.412Z,30.11
2023-05-08T12:42:49.357Z,30.21
2023-05-08T12:45:52.709Z,29.87
2023-05-08T12:49:07.213Z,30.28
2023-05-08T12:52:13.573Z,29.41
2023-05-08T12:55:26.983Z,29.84
2023-05-08T12:58:31.451Z,29.69
2023-05-08T13:01:33.694Z,29.27
2023-05-08T13:04:39.084Z,28.78
2023-05-08T13:07:41.434Z,28.81
2023-05-08T13:10:46.296Z,28.51
2023-05-08T13:13:48.506Z,27.85
2023-05-08T13:16:52.097Z,27.98
2023-05-08T13:19:54.463Z,27.84
2023-05-08T13:22:56.632Z,27.87
2023-05-08T13:25:58.858Z,27.78
2023-05-08T13:29:01.063Z,27.47
2023-05-08T13:32:03.330Z,27.24
2023-05-08T13:35:06.014Z,26.69
2023-05-08T13:38:08.284Z,26.92
2023-05-08T13:41:10.608Z,27.22
2023-05-08T13:44:12.760Z,26.64
2023-05-08T13:47:14.927Z,26.88
2023-05-08T13:50:21.835Z,26.13
2023-05-08T13:53:24.141Z,25.54
2023-05-08T13:56:26.356Z,25.81
2023-05-08T13:59:28.556Z,25.81
2023-05-08T14:02:30.854Z,25.05
2023-05-08T14:05:34.342Z,24.95
2023-05-08T14:08:44.663Z,25.04
2023-05-08T14:11:48.112Z,24.65
2023-05-08T14:14:50.347Z,24.96
2023-05-08T14:17:52.516Z,24.90
2023-05-08T14:20:57.112Z,24.63
2023-05-08T14:23:59.963Z,23.79
2023-05-08T14:27:05.890Z,23.24
2023-05-08T14:30:08.740Z,22.80
2023-05-08T14:33:10.963Z,22.09
2023-05-08T14:36:13.174Z,22.21
2023-05-08T14:39:15.306Z,21.71
2023-05-08T14:42:23.332Z,21.86
2023-05-08T14:45:25.893Z,22.85
2023-05-08T14:48:28.076Z,22.77
2023-05-08T14:51:31.217Z,23.14
2023-05-08T14:54:33.697Z,23.97
2023-05-08T14:57:36.310Z,24.11
2023-05-08T15:00:39.273Z,24.70
2023-05-08T15:03:41.656Z,24.36
2023-05-08T15:06:43.883Z,24.55
2023-05-08T15:09:46.231Z,25.06
2023-05-08T15:12:48.431Z,25.54
2023-05-08T15:15:51.081Z,25.62
2023-05-08T15:18:53.405Z,25.96
2023-05-08T15:21:55.530Z,25.84
2023-05-08T15:25:02.366Z,25.28
2023-05-08T15:28:04.673Z,25.63
2023-05-08T15:31:06.870Z,25.38
2023-05-08T15:34:09.104Z,25.43
2023-05-08T15:37:11.334Z,26.05
2023-05-08T15:40:13.634Z,25.12
2023-05-08T15:43:15.912Z,24.70
2023-05-08T15:46:18.169Z,25.00
2023-05-08T15:49:25.730Z,25.30
2023-05-08T15:52:28.002Z,26.25
2023-05-08T15:55:30.162Z,26.28
2023-05-08T15:58:32.436Z,25.88
2023-05-08T16:01:34.744Z,25.53
2023-05-08T16:04:36.934Z,26.77
2023-05-08T16:07:41.361Z,26.45
2023-05-08T16:10:43.630Z,26.77
2023-05-08T16:13:45.950Z,26.38
2023-05-08T16:16:48.083Z,26.53
2023-05-08T16:19:50.274Z,26.84
2023-05-08T16:22:56.011Z,27.14
2023-05-08T16:25:58.305Z,28.25
2023-05-08T16:29:00.414Z,27.03
2023-05-08T16:32:02.645Z,27.00
2023-05-08T16:35:05.267Z,28.08
2023-05-08T16:38:07.463Z,26.62
2023-05-08T16:41:10.205Z,26.60
2023-05-08T16:44:12.697Z,26.63
2023-05-08T16:47:14.982Z,26.81
2023-05-08T16:50:17.175Z,26.08
2023-05-08T16:53:19.375Z,25.77
2023-05-08T16:56:22.574Z,25.92
2023-05-08T16:59:24.830Z,25.39
2023-05-08T17:02:27.181Z,25.58
2023-05-08T17:05:29.410Z,26.13
2023-05-08T17:08:31.586Z,25.76
2023-05-08T17:11:33.923Z,26.41
2023-05-08T17:14:37.044Z,26.88
2023-05-08T17:17:39.222Z,26.03
2023-05-08T17:20:42.386Z,26.81
2023-05-08T17:23:45.649Z,26.55
2023-05-08T17:26:48.634Z,26.42
2023-05-08T17:29:50.860Z,26.46
2023-05-08T17:32:53.634Z,27.31
2023-05-08T17:35:55.795Z,26.21
2023-05-08T17:38:57.990Z,26.70
2023-05-08T17:42:00.156Z,26.78
2023-05-08T17:45:04.840Z,27.18
2023-05-08T17:48:07.192Z,27.00
2023-05-08T17:51:12.368Z,27.09
2023-05-08T17:54:14.705Z,28.00
2023-05-08T17:57:16.880Z,28.36
2023-05-08T18:00:19.248Z,28.16
2023-05-08T18:03:21.470Z,28.77
2023-05-08T18:06:23.791Z,28.25
2023-05-08T18:09:25.924Z,28.92
2023-05-08T18:12:28.430Z,29.02
2023-05-08T18:15:30.583Z,29.46
2023-05-08T18:18:32.796Z,29.70
2023-05-08T18:21:34.973Z,30.24
2023-05-08T18:24:37.120Z,30.45
2023-05-08T18:27:40.040Z,30.27
2023-05-08T18:30:42.148Z,30.64
2023-05-08T18:33:44.340Z,30.45
2023-05-08T18:36:46.476Z,30.74
2023-05-08T18:39:48.788Z,30.51
2023-05-08T18:42:51.020Z,30.70
2023-05-08T18:45:53.281Z,30.74
2023-05-08T18:48:55.776Z,30.87
2023-05-08T18:51:57.921Z,30.85
2023-05-08T18:55:00.128Z,30.91
2023-05-08T18:58:02.316Z,31.37
2023-05-08T19:01:06.210Z,31.25
2023-05-08T19:04:08.502Z,31.22
2023-05-08T19:07:10.761Z,31.11
2023-05-08T19:10:13.430Z,31.06
2023-05-08T19:13:15.997Z,31.26
2023-05-08T19:16:18.212Z,31.37
2023-05-08T19:19:20.465Z,31.44
2023-05-08T19:22:22.655Z,31.42
2023-05-08T19:25:24.937Z,31.76
2023-05-08T19:28:27.095Z,31.79
2023-05-08T19:31:29.270Z,31.93
2023-05-08T19:34:32.312Z,31.93
2023-05-08T19:37:35.095Z,31.37
2023-05-08T19:40:48.393Z,31.74
2023-05-08T19:43:58.382Z,32.00
2023-05-08T19:47:03.072Z,31.91
2023-05-08T19:50:07.352Z,31.91
2023-05-08T19:53:09.482Z,31.86
2023-05-08T19:56:11.724Z,32.01
2023-05-08T19:59:13.932Z,32.20
2023-05-08T20:02:16.136Z,32.27
2023-05-08T20:05:22.986Z,32.39
2023-05-08T20:08:25.669Z,32.27
2023-05-08T20:11:27.853Z,32.43
2023-05-08T20:14:29.995Z,32.18
2023-05-08T20:17:32.303Z,32.51
2023-05-08T20:20:37.451Z,32.34
2023-05-08T20:23:41.094Z,32.47
2023-05-08T20:26:43.326Z,32.53
2023-05-08T20:29:46.724Z,32.31
2023-05-08T20:32:49.015Z,32.42
2023-05-08T20:35:52.309Z,32.29
2023-05-08T20:38:54.495Z,32.31
2023-05-08T20:41:56.664Z,32.63
2023-05-08T20:44:58.826Z,32.86
2023-05-08T20:48:01.392Z,32.37
2023-05-08T20:51:03.705Z,32.58
2023-05-08T20:54:05.918Z,32.57
2023-05-08T20:57:08.292Z,32.73
2023-05-08T21:00:10.898Z,32.78
2023-05-08T21:03:13.124Z,32.82
2023-05-08T21:06:15.296Z,32.47
2023-05-08T21:09:17.495Z,32.85
2023-05-08T21:12:19.675Z,33.03
2023-05-08T21:15:21.923Z,33.04
2023-05-08T21:18:24.136Z,33.27
2023-05-08T21:21:26.303Z,33.39
2023-05-08T21:24:28.448Z,33.28
2023-05-08T21:27:30.628Z,33.39
2023-05-08T21:30:32.749Z,33.62
2023-05-08T21:33:34.972Z,33.83
2023-05-08T21:36:37.189Z,33.60
2023-05-08T21:39:40.794Z,33.86
2023-05-08T21:42:43.000Z,33.85
2023-05-08T21:45:45.202Z,33.81
2023-05-08T21:48:47.668Z,33.84
2023-05-08T21:51:49.888Z,33.71
2023-05-08T21:54:52.894Z,33.98
2023-05-08T21:57:55.086Z,33.90
2023-05-08T22:00:58.639Z,33.71
2023-05-08T22:04:01.327Z,34.26
2023-05-08T22:07:03.561Z,34.22
2023-05-08T22:10:06.582Z,34.26
2023-05-08T22:13:08.910Z,34.28
2023-05-08T22:16:11.127Z,34.61
2023-05-08T22:19:13.413Z,34.01
2023-05-08T22:22:15.560Z,34.32
2023-05-08T22:25:17.834Z,34.38
2023-05-08T22:28:20.124Z,34.35
2023-05-08T22:31:22.269Z,34.32
2023-05-08T22:34:24.486Z,34.44
2023-05-08T22:37:26.605Z,34.18
2023-05-08T22:40:28.786Z,34.42
2023-05-08T22:43:30.915Z,34.62
2023-05-08T22:46:34.725Z,34.59
2023-05-08T22:49:39.207Z,34.58
2023-05-08T22:52:41.586Z,34.77
2023-05-08T22:55:43.827Z,34.56
2023-05-08T22:58:46.001Z,34.80
2023-05-08T23:01:48.165Z,34.87
2023-05-08T23:04:50.418Z,34.78
2023-05-08T23:07:52.669Z,34.85
2023-05-08T23:10:54.812Z,34.96
2023-05-08T23:13:57.040Z,35.22
2023-05-08T23:16:59.236Z,34.86
2023-05-08T23:20:01.458Z,34.81
2023-05-08T23:23:03.722Z,35.12
2023-05-08T23:26:06.246Z,35.12
2023-05-08T23:29:08.665Z,35.12
2023-05-08T23:32:10.825Z,35.50
2023-05-08T23:35:13.339Z,35.62
2023-05-08T23:38:16.077Z,35.50
2023-05-08T23:41:18.724Z,35.40
2023-05-08T23:44:20.961Z,35.68
2023-05-08T23:47:23.967Z,35.97
2023-05-08T23:50:26.092Z,35.70
2023-05-08T23:53:28.316Z,36.02
2023-05-08T23:56:30.939Z,35.82
2023-05-08T23:59:33.111Z,35.98
